Latest Weather Observations for Gympie

IDQ60801

Issued at 2:05 pm EST Thursday 23 October 2014 (issued every 30 minutes, with the page automatically refreshed every 10 minutes)

About weather observations | Map of weather stations | Latest weather observations for QLD | Other Formats
Station Details ID: 040093 Name: GYMPIE Lat: -26.18 Lon: 152.64 Height: 64.5 m
Data from the previous 72 hours. | See also: Recent months at Gympie
Date/Time
EST
Temp
°C
App
Temp
°C
Dew
Point
Rel
Hum
%
Delta-T
°C
Wind Press
QNH
hPa
Press
MSL
hPa
Rain
since 9 am
mm
Dir
 
Spd
km/h
Gust
km/h
Spd
kts
Gust
kts
23/02:00pm 29.1 27.8 11.2 33 10.3 ESE 9 17 5 9 1017.3 1017.1 0.0
23/01:30pm 28.3 27.2 10.5 33 10.1 E 7 17 4 9 1018.0 1017.8 0.0
23/01:00pm 27.8 27.0 10.9 35 9.6 E 6 11 3 6 1018.5 1018.3 0.0
23/12:30pm 26.9 26.1 11.0 37 9.0 SSE 6 9 3 5 1019.2 1019.0 0.0
23/12:00pm 26.3 25.3 10.9 38 8.7 S 7 19 4 10 1019.8 1019.6 0.0
23/11:30am 25.8 25.0 11.6 41 8.1 ESE 7 15 4 8 1020.7 1020.5 0.0
23/11:00am 25.0 24.2 11.2 42 7.8 SSW 6 17 3 9 1021.3 1021.1 0.0
23/10:30am 23.8 22.9 11.5 46 6.9 ENE 7 11 4 6 1021.6 1021.4 0.0
23/10:00am 23.8 22.9 11.5 46 6.9 SE 7 13 4 7 1022.2 1022.0 0.0
23/09:30am 22.2 21.5 11.3 50 6.1 E 6 9 3 5 1022.3 1022.1 0.0
23/09:00am 22.1 21.4 11.5 51 5.9 ENE 6 13 3 7 1022.4 1022.2 0.0
23/08:30am 21.4 21.4 12.3 56 5.1 SSE 4 6 2 3 1022.4 1022.2 0.0
23/08:00am 20.0 20.0 12.5 62 4.2 SSE 4 6 2 3 1022.7 1022.5 0.0
23/07:30am 17.9 18.4 12.8 72 2.9 WSW 2 4 1 2 1022.6 1022.4 0.0
23/07:00am 15.8 16.5 12.2 79 2.0 CALM 0 0 0 0 1022.6 1022.4 0.0
23/06:30am 13.6 14.3 12.2 91 0.8 CALM 0 0 0 0 1022.5 1022.3 0.0
23/06:00am 12.1 12.5 11.2 94 0.5 CALM 0 0 0 0 1022.5 1022.3 0.0
23/05:30am 10.6 10.7 10.0 96 0.3 CALM 0 0 0 0 1022.4 1022.2 0.0
23/05:00am 10.3 10.2 9.5 95 0.4 CALM 0 0 0 0 1022.1 1021.9 0.0
23/04:30am 10.9 11.0 10.3 96 0.3 CALM 0 0 0 0 1022.0 1021.8 0.0
23/04:00am 10.9 11.0 10.1 95 0.4 CALM 0 2 0 1 1021.8 1021.6 0.0
23/03:30am 11.2 11.3 10.3 94 0.5 CALM 0 0 0 0 1021.8 1021.6 0.0
23/03:00am 11.4 11.5 10.1 92 0.7 CALM 0 0 0 0 1021.6 1021.4 0.0
23/02:30am 11.8 12.1 10.9 94 0.5 CALM 0 0 0 0 1021.6 1021.4 0.0
23/02:00am 11.8 12.1 10.9 94 0.5 CALM 0 0 0 0 1021.5 1021.3 0.0
23/01:30am 11.5 11.5 9.9 90 0.8 CALM 0 0 0 0 1021.8 1021.6 0.0
23/01:00am 12.1 12.3 10.7 91 0.7 CALM 0 0 0 0 1022.2 1022.0 0.0
23/12:30am 12.6 12.9 10.8 89 0.9 CALM 0 0 0 0 1022.3 1022.1 0.0
23/12:00am 12.7 13.1 11.1 90 0.8 NNW 0 0 0 0 1022.7 1022.5 0.0
 
Date/Time
EST
Temp
°C
App
Temp
°C
Dew
Point
Rel
Hum
%
Delta-T
°C
Wind Press
QNH
hPa
Press
MSL
hPa
Rain
since 9 am
mm
Dir
 
Spd
km/h
Gust
km/h
Spd
kts
Gust
kts
22/11:30pm 13.1 13.5 11.2 88 1.0 CALM 0 0 0 0 1022.9 1022.7 0.0
22/11:00pm 13.3 13.7 11.2 87 1.1 CALM 0 0 0 0 1023.3 1023.0 0.0
22/10:30pm 13.8 14.3 11.5 86 1.2 CALM 0 0 0 0 1023.4 1023.1 0.0
22/10:00pm 14.2 14.8 11.9 86 1.2 CALM 0 0 0 0 1023.4 1023.1 0.0
22/09:30pm 14.5 14.7 11.8 84 1.5 WSW 2 4 1 2 1023.5 1023.2 0.0
22/09:00pm 15.6 16.2 12.0 79 2.0 CALM 0 0 0 0 1023.7 1023.4 0.0
22/08:30pm 15.6 16.2 11.8 78 2.1 S 0 0 0 0 1023.6 1023.3 0.0
22/08:00pm 16.2 16.0 11.8 75 2.4 SSE 4 4 2 2 1023.4 1023.1 0.0
22/07:30pm 16.9 16.6 11.6 71 2.9 SE 4 6 2 3 1023.2 1022.9 0.0
22/07:00pm 17.8 17.2 11.6 67 3.4 SE 6 9 3 5 1023.2 1022.9 0.0
22/06:30pm 18.9 17.7 11.5 62 4.1 SE 9 17 5 9 1022.9 1022.7 0.0
22/06:00pm 19.6 18.0 11.6 60 4.4 SE 11 22 6 12 1022.5 1022.3 0.0
22/05:30pm 20.9 19.2 11.3 54 5.3 ESE 11 20 6 11 1022.1 1021.9 0.0
22/05:00pm 21.7 20.0 11.1 51 5.9 SSE 11 22 6 12 1021.8 1021.6 0.0
22/04:30pm 22.1 18.9 11.2 50 6.1 SE 19 32 10 17 1021.5 1021.3 0.0
22/04:00pm 23.1 20.1 10.5 45 6.9 SE 17 30 9 16 1021.4 1021.2 0.0
22/03:30pm 23.9 21.7 10.9 44 7.3 SE 13 24 7 13 1021.3 1021.1 0.0
22/03:00pm 23.1 20.2 9.8 43 7.2 SSE 15 24 8 13 1021.3 1021.1 0.0
22/02:30pm 24.0 21.4 10.7 43 7.4 E 15 28 8 15 1021.6 1021.4 0.0
22/02:00pm 23.6 20.9 11.6 47 6.7 SE 17 30 9 16 1021.9 1021.7 0.0
22/01:30pm 23.5 21.0 11.2 46 6.9 SSE 15 32 8 17 1022.2 1022.0 0.0
22/01:00pm 24.1 22.5 11.4 45 7.1 SE 11 20 6 11 1022.5 1022.3 0.0
22/12:30pm 24.6 22.3 11.9 45 7.2 SE 15 24 8 13 1022.7 1022.5 0.0
22/12:00pm 23.5 21.1 9.9 42 7.4 ESE 13 22 7 12 1023.3 1023.0 0.0
22/11:30am 23.6 20.9 11.6 47 6.8 SE 17 28 9 15 1023.8 1023.5 0.0
22/11:00am 23.2 20.9 10.6 45 6.9 SE 13 22 7 12 1024.3 1024.0 0.0
22/10:30am 22.6 20.3 10.4 46 6.7 ESE 13 26 7 14 1024.7 1024.4 0.0
22/10:00am 22.1 19.8 10.6 48 6.3 SE 13 32 7 17 1024.9 1024.6 0.0
22/09:30am 21.6 19.4 12.2 55 5.3 SE 15 28 8 15 1025.2 1025.0 0.0
22/09:00am 20.3 19.0 13.7 66 3.8 SE 13 22 7 12 1025.3 1025.1 0.6
22/08:30am 20.0 19.2 14.1 69 3.4 SSE 11 20 6 11 1025.3 1025.1 0.6
22/08:00am 18.4 18.1 14.3 77 2.4 SSE 9 19 5 10 1025.2 1025.0 0.6
22/07:30am 17.8 18.0 14.7 82 1.8 SSE 7 15 4 8 1025.2 1025.0 0.6
22/07:00am 17.2 17.8 15.2 88 1.2 SSE 6 7 3 4 1024.9 1024.6 0.6
22/06:30am 16.1 16.6 15.0 93 0.6 SSE 6 9 3 5 1024.7 1024.4 0.6
22/06:00am 15.8 15.9 14.5 92 0.7 SSE 7 9 4 5 1024.5 1024.2 0.4
22/05:30am 15.7 16.0 14.6 93 0.6 SSE 6 7 3 4 1024.2 1023.9 0.4
22/05:00am 15.4 15.7 14.4 94 0.6 S 6 9 3 5 1024.1 1023.8 0.4
22/04:30am 15.7 15.9 14.2 91 0.9 SSE 6 11 3 6 1024.1 1023.8 0.2
22/04:00am 15.5 15.3 13.5 88 1.1 S 7 11 4 6 1023.8 1023.5 0.2
22/03:30am 15.9 15.7 13.6 86 1.3 S 7 13 4 7 1023.7 1023.4 0.2
22/03:00am 16.0 15.5 13.8 87 1.2 S 9 13 5 7 1023.8 1023.5 0.2
22/02:30am 16.0 16.3 14.4 90 0.9 SSE 6 9 3 5 1024.2 1023.9 0.2
22/02:00am 16.1 16.3 14.1 88 1.1 S 6 7 3 4 1024.3 1024.0 0.2
22/01:30am 16.4 16.7 14.6 89 1.0 SSE 6 7 3 4 1024.8 1024.5 0.2
22/01:00am 16.5 17.3 14.7 89 1.0 SSE 4 6 2 3 1025.1 1024.8 0.2
22/12:30am 16.8 17.9 14.6 87 1.3 SSE 2 6 1 3 1025.5 1025.3 0.2
22/12:00am 17.1 18.6 14.7 86 1.4 CALM 0 0 0 0 1025.8 1025.6 0.2
 
Date/Time
EST
Temp
°C
App
Temp
°C
Dew
Point
Rel
Hum
%
Delta-T
°C
Wind Press
QNH
hPa
Press
MSL
hPa
Rain
since 9 am
mm
Dir
 
Spd
km/h
Gust
km/h
Spd
kts
Gust
kts
21/11:30pm 17.1 17.9 14.7 86 1.4 SSE 4 11 2 6 1026.1 1025.9 0.2
21/11:00pm 17.7 18.1 15.3 86 1.4 S 7 11 4 6 1026.4 1026.2 0.2
21/10:30pm 18.0 19.8 15.6 86 1.4 CALM 0 2 0 1 1026.6 1026.4 0.2
21/10:00pm 17.9 19.8 15.7 87 1.3 CALM 0 2 0 1 1026.7 1026.5 0.2
21/09:30pm 18.1 18.7 15.9 87 1.3 SSE 7 11 4 6 1026.7 1026.5 0.2
21/09:00pm 18.5 19.3 16.3 87 1.3 SSE 7 15 4 8 1026.7 1026.5 0.2
21/08:30pm 18.4 19.5 16.7 90 1.0 SE 6 7 3 4 1026.6 1026.4 0.2
21/08:00pm 18.3 19.5 16.8 91 0.9 SSE 6 11 3 6 1026.4 1026.2 0.2
21/07:30pm 18.4 18.9 16.6 89 1.1 SSE 9 15 5 8 1026.1 1025.9 0.2
21/07:00pm 19.9 19.8 16.0 78 2.3 SSE 11 24 6 13 1025.8 1025.6 0.2
21/06:30pm 19.9 19.8 16.0 78 2.3 SE 11 24 6 13 1025.5 1025.3 0.2
21/06:00pm 20.1 18.9 16.1 78 2.4 SE 17 35 9 19 1025.2 1025.0 0.2
21/05:30pm 21.2 20.8 16.2 73 3.0 SSE 13 22 7 12 1024.8 1024.5 0.0
21/05:00pm 22.1 20.6 15.2 65 4.1 SSE 17 26 9 14 1024.3 1024.0 0.0
21/04:30pm 23.3 23.3 15.1 60 4.9 SSE 9 17 5 9 1023.9 1023.6 0.0
21/04:00pm 22.9 21.9 15.5 63 4.4 SE 15 26 8 14 1023.9 1023.6 0.0
21/03:30pm 22.5 22.4 16.1 67 3.9 SSE 11 20 6 11 1023.9 1023.6 0.0
21/03:00pm 22.5 21.2 15.8 66 4.0 SE 17 30 9 16 1024.0 1023.7 0.0
21/02:30pm 22.8 21.4 15.6 64 4.3 E 17 24 9 13 1023.9 1023.6 0.0
21/02:00pm 22.8 22.7 16.1 66 4.0 SSE 11 17 6 9 1024.0 1023.7 0.0
21/01:30pm 24.0 24.3 17.0 65 4.3 SSE 11 24 6 13 1024.3 1024.0 0.0
21/01:00pm 21.8 23.1 17.6 77 2.6 SE 7 11 4 6 1024.8 1024.5 0.0
21/12:30pm 23.1 24.3 19.1 78 2.5 SSE 11 17 6 9 1025.4 1025.2 0.0
21/12:00pm 21.6 21.6 16.3 72 3.2 SSE 11 17 6 9 1025.7 1025.5 0.0
21/11:30am 20.6 19.9 17.4 82 2.0 S 17 26 9 14 1026.1 1025.9 0.0
21/11:00am 21.3 20.3 15.6 70 3.4 SE 15 26 8 14 1026.2 1026.0 0.0
21/10:30am 22.6 21.8 15.0 62 4.5 SE 13 20 7 11 1026.2 1026.0 0.0
21/10:00am 22.9 22.5 14.2 58 5.1 SSE 9 19 5 10 1026.4 1026.2 0.0
21/09:30am 22.2 21.9 14.3 61 4.6 SSE 9 15 5 8 1026.7 1026.5 0.0
21/09:00am 21.8 21.2 14.7 64 4.2 SE 11 19 6 10 1026.8 1026.6 0.0
21/08:30am 21.0 21.3 14.9 68 3.6 SSE 7 11 4 6 1026.8 1026.6 0.0
21/08:00am 20.2 20.2 14.1 68 3.5 SE 7 13 4 7 1026.6 1026.4 0.0
21/07:30am 18.6 19.9 15.1 80 2.1 E 2 4 1 2 1026.3 1026.1 0.0
21/07:00am 15.9 17.1 13.7 87 1.2 CALM 0 0 0 0 1025.9 1025.7 0.0
21/06:30am 14.5 15.4 13.0 91 0.8 CALM 0 0 0 0 1025.8 1025.6 0.0
21/06:00am 12.1 12.4 10.8 92 0.7 CALM 0 0 0 0 1025.6 1025.4 0.0
21/05:30am 11.4 11.6 10.6 95 0.4 CALM 0 0 0 0 1025.3 1025.1 0.0
21/05:00am 11.6 11.8 10.7 94 0.5 CALM 0 0 0 0 1024.9 1024.6 0.0
21/04:30am 12.1 12.5 11.3 95 0.4 CALM 0 0 0 0 1024.7 1024.4 0.0
21/04:00am 11.9 12.2 10.8 93 0.6 CALM 0 0 0 0 1024.6 1024.3 0.0
21/03:30am 12.5 12.6 11.4 93 0.6 NE 2 4 1 2 1024.6 1024.3 0.0
21/03:00am 12.7 13.1 11.4 92 0.7 CALM 0 0 0 0 1024.8 1024.5 0.0
21/02:30am 13.2 13.7 11.6 90 0.9 CALM 0 0 0 0 1024.8 1024.5 0.0
21/02:00am 14.0 14.8 12.4 90 0.9 CALM 0 0 0 0 1025.0 1024.7 0.0
21/01:30am 14.1 14.8 12.1 88 1.1 CALM 0 4 0 2 1025.3 1025.1 0.0
21/01:00am 15.0 15.9 12.9 87 1.2 CALM 0 0 0 0 1025.6 1025.4 0.0
21/12:30am 15.1 16.0 13.0 87 1.2 CALM 0 0 0 0 1025.9 1025.7 0.0
21/12:00am 15.5 16.1 13.2 86 1.3 ESE 2 4 1 2 1026.1 1025.9 0.0
 
Date/Time
EST
Temp
°C
App
Temp
°C
Dew
Point
Rel
Hum
%
Delta-T
°C
Wind Press
QNH
hPa
Press
MSL
hPa
Rain
since 9 am
mm
Dir
 
Spd
km/h
Gust
km/h
Spd
kts
Gust
kts
20/11:30pm 15.3 16.2 13.0 86 1.3 CALM 0 0 0 0 1026.4 1026.2 0.0
20/11:00pm 14.9 15.8 12.8 87 1.2 CALM 0 0 0 0 1026.4 1026.2 0.0
20/10:30pm 15.0 14.8 13.0 88 1.1 SE 6 7 3 4 1026.5 1026.3 0.0
20/10:00pm 15.4 16.2 12.7 84 1.5 CALM 0 0 0 0 1026.3 1026.1 0.0
20/09:30pm 15.7 16.6 13.0 84 1.5 CALM 0 0 0 0 1026.2 1026.0 0.0
20/09:00pm 16.6 17.6 13.3 81 1.8 CALM 0 0 0 0 1025.9 1025.7 0.0
20/08:30pm 17.5 18.4 13.0 75 2.5 CALM 0 0 0 0 1025.4 1025.2 0.0
20/08:00pm 17.9 18.5 13.0 73 2.7 SE 2 4 1 2 1025.0 1024.7 0.0
20/07:30pm 18.4 18.5 12.8 70 3.1 SE 4 7 2 4 1024.6 1024.3 0.0
20/07:00pm 19.9 19.4 12.7 63 4.1 E 7 13 4 7 1024.0 1023.7 0.0
20/06:30pm 20.6 19.6 12.3 59 4.7 E 9 17 5 9 1023.4 1023.1 0.0
20/06:00pm 21.4 19.8 11.4 53 5.5 E 11 17 6 9 1022.9 1022.7 0.0
20/05:30pm 22.8 21.0 10.9 47 6.6 E 11 20 6 11 1022.3 1022.1 0.0
20/05:00pm 24.1 21.6 9.7 40 7.9 E 13 19 7 10 1021.9 1021.7 0.0
20/04:30pm 25.3 22.2 8.7 35 9.0 E 15 20 8 11 1021.5 1021.3 0.0
20/04:00pm 26.5 24.5 10.2 36 9.1 ENE 11 19 6 10 1021.1 1020.9 0.0
20/03:30pm 26.8 24.9 10.5 36 9.2 ENE 11 20 6 11 1020.9 1020.7 0.0
20/03:00pm 27.5 25.9 10.2 34 9.7 ENE 9 17 5 9 1020.8 1020.6 0.0
20/02:30pm 27.9 26.5 9.7 32 10.2 ESE 7 15 4 8 1021.0 1020.8 0.0

Other Formats:

Comma delimited format used in spreadsheet applications
http://www.bom.gov.au/fwo/IDQ60801/IDQ60801.94566.axf

JavaScript Object Notation format (JSON) in row-major order
http://www.bom.gov.au/fwo/IDQ60801/IDQ60801.94566.json